sensor_id;sensor_type;location;lat;lon;timestamp;P1;durP1;ratioP1;P2;durP2;ratioP2
82387;SDS011;72027;47.420;9.310;2024-01-11T00:01:31;139.70;;;35.55;;
82387;SDS011;72027;47.420;9.310;2024-01-11T00:03:59;96.63;;;36.45;;
82387;SDS011;72027;47.420;9.310;2024-01-11T00:06:27;87.40;;;35.75;;
82387;SDS011;72027;47.420;9.310;2024-01-11T00:08:55;146.57;;;37.40;;
82387;SDS011;72027;47.420;9.310;2024-01-11T00:11:22;83.32;;;32.15;;
82387;SDS011;72027;47.420;9.310;2024-01-11T00:13:50;107.15;;;33.65;;
82387;SDS011;72027;47.420;9.310;2024-01-11T00:16:19;88.75;;;32.22;;
82387;SDS011;72027;47.420;9.310;2024-01-11T00:18:47;79.47;;;32.38;;
82387;SDS011;72027;47.420;9.310;2024-01-11T00:21:15;77.95;;;30.15;;
82387;SDS011;72027;47.420;9.310;2024-01-11T00:23:43;77.18;;;32.65;;
82387;SDS011;72027;47.420;9.310;2024-01-11T00:26:11;82.63;;;33.13;;
82387;SDS011;72027;47.420;9.310;2024-01-11T00:28:39;69.78;;;27.92;;
82387;SDS011;72027;47.420;9.310;2024-01-11T00:31:07;58.38;;;27.13;;
82387;SDS011;72027;47.420;9.310;2024-01-11T00:33:36;94.15;;;30.73;;
82387;SDS011;72027;47.420;9.310;2024-01-11T00:36:04;295.85;;;38.75;;
82387;SDS011;72027;47.420;9.310;2024-01-11T00:38:32;76.90;;;30.83;;
82387;SDS011;72027;47.420;9.310;2024-01-11T00:41:00;86.20;;;30.05;;
82387;SDS011;72027;47.420;9.310;2024-01-11T00:43:28;83.15;;;32.03;;
82387;SDS011;72027;47.420;9.310;2024-01-11T00:45:56;80.25;;;29.65;;
82387;SDS011;72027;47.420;9.310;2024-01-11T00:48:24;99.20;;;37.00;;
82387;SDS011;72027;47.420;9.310;2024-01-11T00:50:53;85.95;;;34.05;;
82387;SDS011;72027;47.420;9.310;2024-01-11T00:53:21;82.32;;;31.40;;
82387;SDS011;72027;47.420;9.310;2024-01-11T00:55:49;132.27;;;34.70;;
82387;SDS011;72027;47.420;9.310;2024-01-11T00:58:18;72.55;;;29.90;;
82387;SDS011;72027;47.420;9.310;2024-01-11T01:00:46;78.07;;;30.45;;
82387;SDS011;72027;47.420;9.310;2024-01-11T01:03:13;309.17;;;41.35;;
82387;SDS011;72027;47.420;9.310;2024-01-11T01:05:42;77.50;;;29.27;;
82387;SDS011;72027;47.420;9.310;2024-01-11T01:08:11;156.02;;;32.72;;
82387;SDS011;72027;47.420;9.310;2024-01-11T01:10:39;74.35;;;30.20;;
82387;SDS011;72027;47.420;9.310;2024-01-11T01:13:07;82.72;;;32.28;;
82387;SDS011;72027;47.420;9.310;2024-01-11T01:15:35;77.97;;;30.73;;
82387;SDS011;72027;47.420;9.310;2024-01-11T01:18:03;108.80;;;32.65;;
82387;SDS011;72027;47.420;9.310;2024-01-11T01:20:31;86.60;;;31.33;;
82387;SDS011;72027;47.420;9.310;2024-01-11T01:22:59;79.13;;;31.02;;
82387;SDS011;72027;47.420;9.310;2024-01-11T01:25:28;84.18;;;32.95;;
82387;SDS011;72027;47.420;9.310;2024-01-11T01:27:56;75.97;;;29.45;;
82387;SDS011;72027;47.420;9.310;2024-01-11T01:30:25;149.95;;;36.17;;
82387;SDS011;72027;47.420;9.310;2024-01-11T01:32:53;119.40;;;34.20;;
82387;SDS011;72027;47.420;9.310;2024-01-11T01:35:21;70.18;;;28.02;;
82387;SDS011;72027;47.420;9.310;2024-01-11T01:37:49;79.47;;;30.17;;
82387;SDS011;72027;47.420;9.310;2024-01-11T01:40:16;81.38;;;32.63;;
82387;SDS011;72027;47.420;9.310;2024-01-11T01:42:46;81.45;;;31.00;;
82387;SDS011;72027;47.420;9.310;2024-01-11T01:45:16;72.55;;;29.15;;
82387;SDS011;72027;47.420;9.310;2024-01-11T01:47:44;75.28;;;29.58;;
82387;SDS011;72027;47.420;9.310;2024-01-11T01:50:12;79.25;;;29.00;;
82387;SDS011;72027;47.420;9.310;2024-01-11T01:52:41;95.28;;;34.42;;
82387;SDS011;72027;47.420;9.310;2024-01-11T01:55:10;78.57;;;29.90;;
82387;SDS011;72027;47.420;9.310;2024-01-11T01:57:42;93.75;;;34.15;;
82387;SDS011;72027;47.420;9.310;2024-01-11T02:00:14;90.75;;;32.00;;
82387;SDS011;72027;47.420;9.310;2024-01-11T02:02:42;86.72;;;31.25;;
82387;SDS011;72027;47.420;9.310;2024-01-11T02:05:12;112.15;;;32.05;;
82387;SDS011;72027;47.420;9.310;2024-01-11T02:07:42;117.75;;;31.90;;
82387;SDS011;72027;47.420;9.310;2024-01-11T02:10:10;92.28;;;29.73;;
82387;SDS011;72027;47.420;9.310;2024-01-11T02:12:38;88.95;;;31.35;;
82387;SDS011;72027;47.420;9.310;2024-01-11T02:15:07;83.72;;;32.53;;
82387;SDS011;72027;47.420;9.310;2024-01-11T02:17:37;94.00;;;33.50;;
82387;SDS011;72027;47.420;9.310;2024-01-11T02:20:08;88.45;;;30.65;;
82387;SDS011;72027;47.420;9.310;2024-01-11T02:22:38;106.60;;;32.90;;
82387;SDS011;72027;47.420;9.310;2024-01-11T02:25:09;81.47;;;30.17;;
82387;SDS011;72027;47.420;9.310;2024-01-11T02:27:46;67.90;;;29.55;;
82387;SDS011;72027;47.420;9.310;2024-01-11T02:30:15;115.68;;;33.13;;
82387;SDS011;72027;47.420;9.310;2024-01-11T02:32:44;101.57;;;30.92;;
82387;SDS011;72027;47.420;9.310;2024-01-11T02:35:15;86.18;;;30.48;;
82387;SDS011;72027;47.420;9.310;2024-01-11T02:37:43;80.93;;;33.30;;
82387;SDS011;72027;47.420;9.310;2024-01-11T02:40:13;79.70;;;29.60;;
82387;SDS011;72027;47.420;9.310;2024-01-11T02:42:42;85.40;;;29.25;;
82387;SDS011;72027;47.420;9.310;2024-01-11T02:45:10;77.78;;;29.42;;
82387;SDS011;72027;47.420;9.310;2024-01-11T02:47:38;65.22;;;26.27;;
82387;SDS011;72027;47.420;9.310;2024-01-11T02:50:07;64.97;;;27.40;;
82387;SDS011;72027;47.420;9.310;2024-01-11T02:52:35;60.22;;;26.92;;
82387;SDS011;72027;47.420;9.310;2024-01-11T02:55:03;88.45;;;32.05;;
82387;SDS011;72027;47.420;9.310;2024-01-11T02:57:33;76.03;;;27.65;;
82387;SDS011;72027;47.420;9.310;2024-01-11T03:00:01;79.18;;;31.65;;
82387;SDS011;72027;47.420;9.310;2024-01-11T03:02:29;80.22;;;31.05;;
82387;SDS011;72027;47.420;9.310;2024-01-11T03:04:57;80.63;;;29.45;;
82387;SDS011;72027;47.420;9.310;2024-01-11T03:07:25;78.57;;;29.25;;
82387;SDS011;72027;47.420;9.310;2024-01-11T03:09:52;72.10;;;27.77;;
82387;SDS011;72027;47.420;9.310;2024-01-11T03:12:20;62.47;;;26.02;;
82387;SDS011;72027;47.420;9.310;2024-01-11T03:14:49;75.85;;;28.23;;
82387;SDS011;72027;47.420;9.310;2024-01-11T03:17:17;86.28;;;34.80;;
82387;SDS011;72027;47.420;9.310;2024-01-11T03:19:45;82.97;;;32.38;;
82387;SDS011;72027;47.420;9.310;2024-01-11T03:22:13;84.78;;;29.98;;
82387;SDS011;72027;47.420;9.310;2024-01-11T03:24:41;94.20;;;35.65;;
82387;SDS011;72027;47.420;9.310;2024-01-11T03:27:08;98.45;;;36.15;;
82387;SDS011;72027;47.420;9.310;2024-01-11T03:29:36;126.70;;;40.88;;
82387;SDS011;72027;47.420;9.310;2024-01-11T03:32:06;103.75;;;37.72;;
82387;SDS011;72027;47.420;9.310;2024-01-11T03:34:34;116.20;;;39.85;;
82387;SDS011;72027;47.420;9.310;2024-01-11T03:37:01;116.18;;;39.75;;
82387;SDS011;72027;47.420;9.310;2024-01-11T03:39:29;97.78;;;37.03;;
82387;SDS011;72027;47.420;9.310;2024-01-11T03:41:57;127.53;;;41.35;;
82387;SDS011;72027;47.420;9.310;2024-01-11T03:44:25;112.95;;;40.50;;
82387;SDS011;72027;47.420;9.310;2024-01-11T03:46:53;107.35;;;34.90;;
82387;SDS011;72027;47.420;9.310;2024-01-11T03:49:22;141.57;;;40.25;;
82387;SDS011;72027;47.420;9.310;2024-01-11T03:51:50;114.95;;;39.17;;
82387;SDS011;72027;47.420;9.310;2024-01-11T03:54:18;120.50;;;38.13;;
82387;SDS011;72027;47.420;9.310;2024-01-11T03:56:45;112.30;;;38.33;;
82387;SDS011;72027;47.420;9.310;2024-01-11T03:59:14;86.78;;;31.50;;
82387;SDS011;72027;47.420;9.310;2024-01-11T04:01:43;111.68;;;37.40;;
82387;SDS011;72027;47.420;9.310;2024-01-11T04:04:10;109.22;;;39.17;;
82387;SDS011;72027;47.420;9.310;2024-01-11T04:06:40;118.25;;;42.90;;
82387;SDS011;72027;47.420;9.310;2024-01-11T04:09:08;105.97;;;36.08;;
82387;SDS011;72027;47.420;9.310;2024-01-11T04:11:36;108.55;;;37.88;;
82387;SDS011;72027;47.420;9.310;2024-01-11T04:14:03;120.68;;;39.75;;
82387;SDS011;72027;47.420;9.310;2024-01-11T04:16:32;106.88;;;39.22;;
82387;SDS011;72027;47.420;9.310;2024-01-11T04:19:00;101.72;;;37.58;;
82387;SDS011;72027;47.420;9.310;2024-01-11T04:21:30;92.82;;;32.88;;
82387;SDS011;72027;47.420;9.310;2024-01-11T04:23:59;119.38;;;41.08;;
82387;SDS011;72027;47.420;9.310;2024-01-11T04:26:27;119.78;;;40.05;;
82387;SDS011;72027;47.420;9.310;2024-01-11T04:28:55;112.43;;;42.20;;
82387;SDS011;72027;47.420;9.310;2024-01-11T04:31:25;119.45;;;41.17;;
82387;SDS011;72027;47.420;9.310;2024-01-11T04:33:54;112.20;;;41.25;;
82387;SDS011;72027;47.420;9.310;2024-01-11T04:36:22;123.28;;;41.30;;
82387;SDS011;72027;47.420;9.310;2024-01-11T04:38:49;103.63;;;37.70;;
82387;SDS011;72027;47.420;9.310;2024-01-11T04:41:19;128.93;;;40.97;;
82387;SDS011;72027;47.420;9.310;2024-01-11T04:43:46;159.93;;;41.03;;
82387;SDS011;72027;47.420;9.310;2024-01-11T04:46:15;111.45;;;41.70;;
82387;SDS011;72027;47.420;9.310;2024-01-11T04:48:44;109.97;;;39.25;;
82387;SDS011;72027;47.420;9.310;2024-01-11T04:51:12;105.38;;;38.33;;
82387;SDS011;72027;47.420;9.310;2024-01-11T04:53:41;108.47;;;39.35;;
82387;SDS011;72027;47.420;9.310;2024-01-11T04:56:10;107.75;;;37.92;;
82387;SDS011;72027;47.420;9.310;2024-01-11T04:58:40;109.60;;;39.38;;
82387;SDS011;72027;47.420;9.310;2024-01-11T05:01:11;111.35;;;38.08;;
82387;SDS011;72027;47.420;9.310;2024-01-11T05:03:40;113.40;;;38.67;;
82387;SDS011;72027;47.420;9.310;2024-01-11T05:06:08;107.28;;;37.05;;
82387;SDS011;72027;47.420;9.310;2024-01-11T05:08:42;111.07;;;37.92;;
82387;SDS011;72027;47.420;9.310;2024-01-11T05:11:14;109.18;;;37.05;;
82387;SDS011;72027;47.420;9.310;2024-01-11T05:13:45;114.82;;;37.22;;
82387;SDS011;72027;47.420;9.310;2024-01-11T05:16:18;103.85;;;34.63;;
82387;SDS011;72027;47.420;9.310;2024-01-11T05:18:46;98.93;;;34.70;;
82387;SDS011;72027;47.420;9.310;2024-01-11T05:21:14;100.50;;;34.58;;
82387;SDS011;72027;47.420;9.310;2024-01-11T05:23:42;97.88;;;33.20;;
82387;SDS011;72027;47.420;9.310;2024-01-11T05:26:10;89.85;;;32.63;;
82387;SDS011;72027;47.420;9.310;2024-01-11T05:28:40;102.32;;;35.95;;
82387;SDS011;72027;47.420;9.310;2024-01-11T05:31:10;112.28;;;37.33;;
82387;SDS011;72027;47.420;9.310;2024-01-11T05:33:38;99.05;;;35.95;;
82387;SDS011;72027;47.420;9.310;2024-01-11T05:36:07;92.30;;;32.13;;
82387;SDS011;72027;47.420;9.310;2024-01-11T05:38:35;107.95;;;37.00;;
82387;SDS011;72027;47.420;9.310;2024-01-11T05:41:03;100.78;;;35.55;;
82387;SDS011;72027;47.420;9.310;2024-01-11T05:43:30;88.32;;;33.20;;
82387;SDS011;72027;47.420;9.310;2024-01-11T05:45:58;91.20;;;33.20;;
82387;SDS011;72027;47.420;9.310;2024-01-11T05:48:27;102.50;;;34.28;;
82387;SDS011;72027;47.420;9.310;2024-01-11T05:50:55;91.47;;;35.90;;
82387;SDS011;72027;47.420;9.310;2024-01-11T05:53:23;91.75;;;33.85;;
82387;SDS011;72027;47.420;9.310;2024-01-11T05:55:51;92.63;;;33.40;;
82387;SDS011;72027;47.420;9.310;2024-01-11T05:58:20;90.45;;;32.25;;
82387;SDS011;72027;47.420;9.310;2024-01-11T06:00:48;102.47;;;35.50;;
82387;SDS011;72027;47.420;9.310;2024-01-11T06:03:16;111.45;;;41.28;;
82387;SDS011;72027;47.420;9.310;2024-01-11T06:05:45;104.43;;;36.90;;
82387;SDS011;72027;47.420;9.310;2024-01-11T06:08:13;90.63;;;34.58;;
82387;SDS011;72027;47.420;9.310;2024-01-11T06:10:41;92.35;;;32.45;;
82387;SDS011;72027;47.420;9.310;2024-01-11T06:13:08;75.47;;;29.52;;
82387;SDS011;72027;47.420;9.310;2024-01-11T06:15:37;111.57;;;33.35;;
82387;SDS011;72027;47.420;9.310;2024-01-11T06:18:07;91.40;;;31.13;;
82387;SDS011;72027;47.420;9.310;2024-01-11T06:20:35;97.30;;;33.83;;
82387;SDS011;72027;47.420;9.310;2024-01-11T06:23:04;93.07;;;30.33;;
82387;SDS011;72027;47.420;9.310;2024-01-11T06:25:32;86.82;;;34.58;;
82387;SDS011;72027;47.420;9.310;2024-01-11T06:28:00;90.65;;;30.70;;
82387;SDS011;72027;47.420;9.310;2024-01-11T06:30:29;89.93;;;34.72;;
82387;SDS011;72027;47.420;9.310;2024-01-11T06:32:57;98.78;;;29.80;;
82387;SDS011;72027;47.420;9.310;2024-01-11T06:35:25;78.70;;;31.88;;
82387;SDS011;72027;47.420;9.310;2024-01-11T06:37:53;74.13;;;27.55;;
82387;SDS011;72027;47.420;9.310;2024-01-11T06:40:22;87.93;;;31.50;;
82387;SDS011;72027;47.420;9.310;2024-01-11T06:42:50;88.72;;;32.92;;
82387;SDS011;72027;47.420;9.310;2024-01-11T06:45:18;92.47;;;31.25;;
82387;SDS011;72027;47.420;9.310;2024-01-11T06:47:46;94.13;;;32.55;;
82387;SDS011;72027;47.420;9.310;2024-01-11T06:50:15;79.78;;;30.20;;
82387;SDS011;72027;47.420;9.310;2024-01-11T06:52:44;82.68;;;30.02;;
82387;SDS011;72027;47.420;9.310;2024-01-11T06:55:11;83.03;;;30.63;;
82387;SDS011;72027;47.420;9.310;2024-01-11T06:57:40;88.82;;;30.55;;
82387;SDS011;72027;47.420;9.310;2024-01-11T07:00:09;87.45;;;30.42;;
82387;SDS011;72027;47.420;9.310;2024-01-11T07:02:37;75.72;;;29.45;;
82387;SDS011;72027;47.420;9.310;2024-01-11T07:05:06;89.50;;;30.35;;
82387;SDS011;72027;47.420;9.310;2024-01-11T07:07:35;87.72;;;32.47;;
82387;SDS011;72027;47.420;9.310;2024-01-11T07:10:03;80.35;;;27.63;;
82387;SDS011;72027;47.420;9.310;2024-01-11T07:12:32;80.72;;;29.92;;
82387;SDS011;72027;47.420;9.310;2024-01-11T07:15:01;84.70;;;28.15;;
82387;SDS011;72027;47.420;9.310;2024-01-11T07:17:31;77.43;;;27.30;;
82387;SDS011;72027;47.420;9.310;2024-01-11T07:19:58;93.93;;;31.25;;
82387;SDS011;72027;47.420;9.310;2024-01-11T07:22:27;81.78;;;27.75;;
82387;SDS011;72027;47.420;9.310;2024-01-11T07:24:59;68.80;;;28.17;;
82387;SDS011;72027;47.420;9.310;2024-01-11T07:27:26;96.55;;;30.77;;
82387;SDS011;72027;47.420;9.310;2024-01-11T07:29:54;84.65;;;29.27;;
82387;SDS011;72027;47.420;9.310;2024-01-11T07:32:23;71.72;;;26.55;;
82387;SDS011;72027;47.420;9.310;2024-01-11T07:34:51;78.90;;;27.95;;
82387;SDS011;72027;47.420;9.310;2024-01-11T07:37:19;71.50;;;25.55;;
82387;SDS011;72027;47.420;9.310;2024-01-11T07:39:47;72.72;;;28.30;;
82387;SDS011;72027;47.420;9.310;2024-01-11T07:42:16;83.88;;;28.20;;
82387;SDS011;72027;47.420;9.310;2024-01-11T07:44:43;87.13;;;30.52;;
82387;SDS011;72027;47.420;9.310;2024-01-11T07:47:11;79.97;;;27.90;;
82387;SDS011;72027;47.420;9.310;2024-01-11T07:49:40;81.65;;;31.67;;
82387;SDS011;72027;47.420;9.310;2024-01-11T07:52:08;79.60;;;28.70;;
82387;SDS011;72027;47.420;9.310;2024-01-11T07:54:36;83.22;;;30.73;;
82387;SDS011;72027;47.420;9.310;2024-01-11T07:57:04;83.57;;;28.80;;
82387;SDS011;72027;47.420;9.310;2024-01-11T07:59:32;79.45;;;26.88;;
82387;SDS011;72027;47.420;9.310;2024-01-11T08:02:02;78.43;;;28.98;;
82387;SDS011;72027;47.420;9.310;2024-01-11T08:04:32;90.28;;;31.20;;
82387;SDS011;72027;47.420;9.310;2024-01-11T08:07:01;88.97;;;28.33;;
82387;SDS011;72027;47.420;9.310;2024-01-11T08:09:29;144.73;;;33.75;;
82387;SDS011;72027;47.420;9.310;2024-01-11T08:11:57;69.93;;;28.58;;
82387;SDS011;72027;47.420;9.310;2024-01-11T08:14:25;83.43;;;26.63;;
82387;SDS011;72027;47.420;9.310;2024-01-11T08:16:53;77.53;;;29.02;;
82387;SDS011;72027;47.420;9.310;2024-01-11T08:19:21;94.53;;;29.98;;
82387;SDS011;72027;47.420;9.310;2024-01-11T08:21:48;82.22;;;30.60;;
82387;SDS011;72027;47.420;9.310;2024-01-11T08:24:18;116.07;;;26.90;;
82387;SDS011;72027;47.420;9.310;2024-01-11T08:26:45;76.53;;;29.13;;
82387;SDS011;72027;47.420;9.310;2024-01-11T08:29:13;103.70;;;29.95;;
82387;SDS011;72027;47.420;9.310;2024-01-11T08:31:41;70.20;;;26.25;;
82387;SDS011;72027;47.420;9.310;2024-01-11T08:34:10;72.30;;;27.67;;
82387;SDS011;72027;47.420;9.310;2024-01-11T08:36:38;66.88;;;25.45;;
82387;SDS011;72027;47.420;9.310;2024-01-11T08:39:06;70.20;;;25.30;;
82387;SDS011;72027;47.420;9.310;2024-01-11T08:41:35;81.18;;;27.88;;
82387;SDS011;72027;47.420;9.310;2024-01-11T08:44:04;70.85;;;27.42;;
82387;SDS011;72027;47.420;9.310;2024-01-11T08:46:32;73.28;;;25.67;;
82387;SDS011;72027;47.420;9.310;2024-01-11T08:49:00;65.72;;;26.70;;
82387;SDS011;72027;47.420;9.310;2024-01-11T08:53:28;76.15;;;27.17;;
82387;SDS011;72027;47.420;9.310;2024-01-11T08:55:56;97.70;;;30.45;;
82387;SDS011;72027;47.420;9.310;2024-01-11T08:58:24;96.57;;;28.63;;
82387;SDS011;72027;47.420;9.310;2024-01-11T09:00:51;81.38;;;30.38;;
82387;SDS011;72027;47.420;9.310;2024-01-11T09:03:19;72.68;;;27.35;;
82387;SDS011;72027;47.420;9.310;2024-01-11T09:05:47;82.82;;;29.92;;
82387;SDS011;72027;47.420;9.310;2024-01-11T09:08:15;79.80;;;26.45;;
82387;SDS011;72027;47.420;9.310;2024-01-11T09:10:45;84.22;;;27.60;;
82387;SDS011;72027;47.420;9.310;2024-01-11T09:13:12;91.93;;;29.48;;
82387;SDS011;72027;47.420;9.310;2024-01-11T09:15:42;71.90;;;27.17;;
82387;SDS011;72027;47.420;9.310;2024-01-11T09:18:09;75.45;;;27.73;;
82387;SDS011;72027;47.420;9.310;2024-01-11T09:20:37;78.30;;;27.52;;
82387;SDS011;72027;47.420;9.310;2024-01-11T09:23:05;67.95;;;24.90;;
82387;SDS011;72027;47.420;9.310;2024-01-11T09:25:33;71.13;;;28.23;;
82387;SDS011;72027;47.420;9.310;2024-01-11T09:28:02;63.03;;;24.67;;
82387;SDS011;72027;47.420;9.310;2024-01-11T09:30:30;69.28;;;25.38;;
82387;SDS011;72027;47.420;9.310;2024-01-11T09:32:59;71.45;;;24.75;;
82387;SDS011;72027;47.420;9.310;2024-01-11T09:35:27;65.95;;;25.23;;
82387;SDS011;72027;47.420;9.310;2024-01-11T09:37:55;65.70;;;24.95;;
82387;SDS011;72027;47.420;9.310;2024-01-11T09:40:23;76.18;;;23.85;;
82387;SDS011;72027;47.420;9.310;2024-01-11T09:42:50;68.55;;;25.60;;
82387;SDS011;72027;47.420;9.310;2024-01-11T09:45:20;66.95;;;23.55;;
82387;SDS011;72027;47.420;9.310;2024-01-11T09:47:47;66.90;;;23.55;;
82387;SDS011;72027;47.420;9.310;2024-01-11T09:50:17;57.17;;;22.48;;
82387;SDS011;72027;47.420;9.310;2024-01-11T09:52:45;68.28;;;22.48;;
82387;SDS011;72027;47.420;9.310;2024-01-11T09:55:15;71.10;;;22.40;;
82387;SDS011;72027;47.420;9.310;2024-01-11T09:57:44;67.60;;;23.55;;
82387;SDS011;72027;47.420;9.310;2024-01-11T10:00:13;60.55;;;22.58;;
82387;SDS011;72027;47.420;9.310;2024-01-11T10:02:46;74.82;;;24.92;;
82387;SDS011;72027;47.420;9.310;2024-01-11T10:05:14;75.40;;;22.88;;
82387;SDS011;72027;47.420;9.310;2024-01-11T10:07:45;52.88;;;22.77;;
82387;SDS011;72027;47.420;9.310;2024-01-11T10:10:13;81.97;;;25.58;;
82387;SDS011;72027;47.420;9.310;2024-01-11T10:12:42;67.88;;;25.23;;
82387;SDS011;72027;47.420;9.310;2024-01-11T10:15:10;64.28;;;23.50;;
82387;SDS011;72027;47.420;9.310;2024-01-11T10:17:40;61.55;;;24.20;;
82387;SDS011;72027;47.420;9.310;2024-01-11T10:20:12;64.80;;;23.65;;
82387;SDS011;72027;47.420;9.310;2024-01-11T10:22:41;53.72;;;21.13;;
82387;SDS011;72027;47.420;9.310;2024-01-11T10:25:10;59.45;;;23.20;;
82387;SDS011;72027;47.420;9.310;2024-01-11T10:27:39;54.58;;;22.48;;
82387;SDS011;72027;47.420;9.310;2024-01-11T10:30:10;62.75;;;22.85;;
82387;SDS011;72027;47.420;9.310;2024-01-11T10:32:40;77.88;;;24.45;;
82387;SDS011;72027;47.420;9.310;2024-01-11T10:35:08;81.90;;;24.67;;
82387;SDS011;72027;47.420;9.310;2024-01-11T10:37:37;63.00;;;22.02;;
82387;SDS011;72027;47.420;9.310;2024-01-11T10:40:07;54.20;;;20.63;;
82387;SDS011;72027;47.420;9.310;2024-01-11T10:42:39;117.13;;;24.70;;
82387;SDS011;72027;47.420;9.310;2024-01-11T10:45:10;75.47;;;24.65;;
82387;SDS011;72027;47.420;9.310;2024-01-11T10:48:01;142.57;;;24.83;;
82387;SDS011;72027;47.420;9.310;2024-01-11T10:50:34;107.43;;;24.23;;
82387;SDS011;72027;47.420;9.310;2024-01-11T10:53:07;51.25;;;19.63;;
82387;SDS011;72027;47.420;9.310;2024-01-11T10:55:40;81.97;;;22.42;;
82387;SDS011;72027;47.420;9.310;2024-01-11T10:58:08;145.40;;;25.35;;
82387;SDS011;72027;47.420;9.310;2024-01-11T11:00:38;49.55;;;19.95;;
82387;SDS011;72027;47.420;9.310;2024-01-11T11:03:07;62.85;;;21.70;;
82387;SDS011;72027;47.420;9.310;2024-01-11T11:05:37;57.92;;;22.20;;
82387;SDS011;72027;47.420;9.310;2024-01-11T11:08:06;82.03;;;21.40;;
82387;SDS011;72027;47.420;9.310;2024-01-11T11:10:38;50.38;;;18.73;;
82387;SDS011;72027;47.420;9.310;2024-01-11T11:13:08;53.65;;;18.58;;
82387;SDS011;72027;47.420;9.310;2024-01-11T11:15:37;61.80;;;21.17;;
82387;SDS011;72027;47.420;9.310;2024-01-11T11:18:08;54.90;;;21.30;;
82387;SDS011;72027;47.420;9.310;2024-01-11T11:20:36;52.03;;;19.35;;
82387;SDS011;72027;47.420;9.310;2024-01-11T11:23:05;50.85;;;20.42;;
82387;SDS011;72027;47.420;9.310;2024-01-11T11:25:34;52.75;;;19.80;;
82387;SDS011;72027;47.420;9.310;2024-01-11T11:28:02;46.40;;;18.35;;
82387;SDS011;72027;47.420;9.310;2024-01-11T11:30:31;87.25;;;21.13;;
82387;SDS011;72027;47.420;9.310;2024-01-11T11:33:08;40.78;;;17.20;;
82387;SDS011;72027;47.420;9.310;2024-01-11T11:35:37;53.03;;;19.27;;
82387;SDS011;72027;47.420;9.310;2024-01-11T11:38:05;48.08;;;19.77;;
82387;SDS011;72027;47.420;9.310;2024-01-11T11:40:36;66.07;;;21.17;;
82387;SDS011;72027;47.420;9.310;2024-01-11T11:43:06;52.45;;;19.48;;
82387;SDS011;72027;47.420;9.310;2024-01-11T11:45:34;50.83;;;21.33;;
82387;SDS011;72027;47.420;9.310;2024-01-11T11:48:05;51.75;;;19.92;;
82387;SDS011;72027;47.420;9.310;2024-01-11T11:51:14;59.25;;;21.92;;
82387;SDS011;72027;47.420;9.310;2024-01-11T11:53:45;50.92;;;21.65;;
82387;SDS011;72027;47.420;9.310;2024-01-11T11:56:14;49.80;;;18.73;;
82387;SDS011;72027;47.420;9.310;2024-01-11T11:58:44;51.00;;;19.92;;
82387;SDS011;72027;47.420;9.310;2024-01-11T12:01:13;75.10;;;23.38;;
82387;SDS011;72027;47.420;9.310;2024-01-11T12:03:43;52.20;;;20.85;;
82387;SDS011;72027;47.420;9.310;2024-01-11T12:06:17;45.65;;;19.20;;
82387;SDS011;72027;47.420;9.310;2024-01-11T12:08:47;54.90;;;20.10;;
82387;SDS011;72027;47.420;9.310;2024-01-11T12:11:22;50.60;;;20.30;;
82387;SDS011;72027;47.420;9.310;2024-01-11T12:13:50;57.67;;;20.35;;
82387;SDS011;72027;47.420;9.310;2024-01-11T12:16:19;57.65;;;21.33;;
82387;SDS011;72027;47.420;9.310;2024-01-11T12:18:51;56.67;;;21.77;;
82387;SDS011;72027;47.420;9.310;2024-01-11T12:21:21;58.15;;;20.38;;
82387;SDS011;72027;47.420;9.310;2024-01-11T12:23:49;60.78;;;22.17;;
82387;SDS011;72027;47.420;9.310;2024-01-11T12:26:17;51.13;;;20.60;;
82387;SDS011;72027;47.420;9.310;2024-01-11T12:28:48;70.65;;;22.67;;
82387;SDS011;72027;47.420;9.310;2024-01-11T12:31:16;61.13;;;22.13;;
82387;SDS011;72027;47.420;9.310;2024-01-11T12:33:46;57.38;;;20.02;;
82387;SDS011;72027;47.420;9.310;2024-01-11T12:36:17;55.15;;;20.08;;
82387;SDS011;72027;47.420;9.310;2024-01-11T12:38:47;57.83;;;20.38;;
82387;SDS011;72027;47.420;9.310;2024-01-11T12:41:17;48.45;;;18.98;;
82387;SDS011;72027;47.420;9.310;2024-01-11T12:43:46;55.42;;;20.58;;
82387;SDS011;72027;47.420;9.310;2024-01-11T12:46:14;50.40;;;20.20;;
82387;SDS011;72027;47.420;9.310;2024-01-11T12:48:43;57.50;;;21.58;;
82387;SDS011;72027;47.420;9.310;2024-01-11T12:51:11;50.10;;;20.40;;
82387;SDS011;72027;47.420;9.310;2024-01-11T12:53:44;53.85;;;21.77;;
82387;SDS011;72027;47.420;9.310;2024-01-11T12:56:14;52.30;;;20.48;;
82387;SDS011;72027;47.420;9.310;2024-01-11T12:58:43;56.20;;;21.05;;
82387;SDS011;72027;47.420;9.310;2024-01-11T13:01:16;62.80;;;20.85;;
82387;SDS011;72027;47.420;9.310;2024-01-11T13:03:45;54.22;;;20.30;;
82387;SDS011;72027;47.420;9.310;2024-01-11T13:06:15;60.70;;;20.77;;
82387;SDS011;72027;47.420;9.310;2024-01-11T13:08:45;44.65;;;19.10;;
82387;SDS011;72027;47.420;9.310;2024-01-11T13:11:18;45.88;;;19.02;;
82387;SDS011;72027;47.420;9.310;2024-01-11T13:13:47;44.15;;;18.15;;
82387;SDS011;72027;47.420;9.310;2024-01-11T13:16:15;40.63;;;16.95;;
82387;SDS011;72027;47.420;9.310;2024-01-11T13:18:45;58.30;;;18.85;;
82387;SDS011;72027;47.420;9.310;2024-01-11T13:21:13;60.33;;;19.83;;
82387;SDS011;72027;47.420;9.310;2024-01-11T13:23:43;45.03;;;18.20;;
82387;SDS011;72027;47.420;9.310;2024-01-11T13:26:11;44.47;;;17.10;;
82387;SDS011;72027;47.420;9.310;2024-01-11T13:28:41;40.97;;;17.92;;
82387;SDS011;72027;47.420;9.310;2024-01-11T13:31:09;45.17;;;16.30;;
82387;SDS011;72027;47.420;9.310;2024-01-11T13:33:37;43.90;;;17.10;;
82387;SDS011;72027;47.420;9.310;2024-01-11T13:36:07;74.53;;;19.20;;
82387;SDS011;72027;47.420;9.310;2024-01-11T13:38:35;65.05;;;20.60;;
82387;SDS011;72027;47.420;9.310;2024-01-11T13:41:03;119.35;;;19.77;;
82387;SDS011;72027;47.420;9.310;2024-01-11T13:43:34;38.78;;;16.55;;
82387;SDS011;72027;47.420;9.310;2024-01-11T13:46:03;97.63;;;18.92;;
82387;SDS011;72027;47.420;9.310;2024-01-11T13:48:35;40.83;;;16.23;;
82387;SDS011;72027;47.420;9.310;2024-01-11T13:51:03;46.35;;;16.98;;
82387;SDS011;72027;47.420;9.310;2024-01-11T13:53:31;58.58;;;20.73;;
82387;SDS011;72027;47.420;9.310;2024-01-11T13:55:59;49.92;;;18.73;;
82387;SDS011;72027;47.420;9.310;2024-01-11T13:58:29;63.17;;;19.52;;
82387;SDS011;72027;47.420;9.310;2024-01-11T14:00:57;44.10;;;17.38;;
82387;SDS011;72027;47.420;9.310;2024-01-11T14:03:26;58.83;;;20.80;;
82387;SDS011;72027;47.420;9.310;2024-01-11T14:05:54;76.20;;;20.92;;
82387;SDS011;72027;47.420;9.310;2024-01-11T14:08:24;46.28;;;17.75;;
82387;SDS011;72027;47.420;9.310;2024-01-11T14:10:52;42.40;;;16.13;;
82387;SDS011;72027;47.420;9.310;2024-01-11T14:13:21;47.72;;;18.52;;
82387;SDS011;72027;47.420;9.310;2024-01-11T14:15:49;57.63;;;19.63;;
82387;SDS011;72027;47.420;9.310;2024-01-11T14:18:17;46.88;;;17.17;;
82387;SDS011;72027;47.420;9.310;2024-01-11T14:20:47;48.97;;;18.30;;
82387;SDS011;72027;47.420;9.310;2024-01-11T14:23:15;56.60;;;20.33;;
82387;SDS011;72027;47.420;9.310;2024-01-11T14:25:43;49.80;;;19.80;;
82387;SDS011;72027;47.420;9.310;2024-01-11T14:28:15;59.08;;;19.25;;
82387;SDS011;72027;47.420;9.310;2024-01-11T14:30:43;50.53;;;19.80;;